Molly Patricia — WDH9743 — position and weather

sailwx.info

Track history (hours):
 
Tides and Currents Weather Stations Pressure Air Temp Water Temp Dewpoint Dewpoint Depression Visibility Wind Speed Wind Dir Waves Ship Positions

Molly Patricia

Owner: MOLLY PATRICIA, Houston, TX. More information available from US FCC via Universal Licensing System and Coast Guard Vessel Documentation Center.

Last reported at 2018-May-18 11:40 UTC. Time now 2018-May-21 12:57 UTC.
Position N 30°03' W 090°39'.

Length 29 m; draft 3 m.

Type: Sailing vessel. MMSI: 367671160.

Date/timePositionNaut miles runAvg speedWind from/ knotsBaromVisibWave heightAir tempDewpointWater temp
2018-May-18 11:40N 30°03' W 090°39'0 0.0
2018-May-18 11:29N 30°03' W 090°39'0 0.0
2018-May-18 10:00N 30°03' W 090°39'0 0.0
2018-May-18 09:22N 30°03' W 090°39'0 0.0
2018-May-18 09:00N 30°03' W 090°39'15 0.7
2018-May-17 12:52N 29°57' W 090°23'0 0.0
2018-May-17 07:35N 29°57' W 090°23'0 0.0
2018-May-17 07:14N 29°57' W 090°23'0 0.0
2018-May-17 07:00N 29°57' W 090°23'0 0.0
2018-May-17 04:57N 29°57' W 090°23'0 0.0
2018-May-17 04:29N 29°57' W 090°23'0 0.0
2018-May-17 03:54N 29°57' W 090°23'  
2018-May-14 13:09N 29°57' W 090°23'0 0.0
2018-May-14 12:59N 29°57' W 090°23'0 0.0
2018-May-14 09:41N 29°57' W 090°23'0 0.0
2018-May-14 08:53N 29°57' W 090°23'0 0.0
2018-May-14 06:11N 29°57' W 090°23'0 0.0
2018-May-14 06:00N 29°57' W 090°23'  
2018-May-09 12:20N 30°26' W 091°12'0 0.0
2018-May-09 11:58N 30°26' W 091°12'0 0.0
2018-May-09 11:25N 30°26' W 091°12'0 0.0
2018-May-09 10:58N 30°26' W 091°12'0 0.0
2018-May-09 10:06N 30°26' W 091°12'0 0.0
2018-May-09 09:55N 30°26' W 091°12'26 1.3
2018-May-08 13:49N 30°05' W 090°54'1 2.5
2018-May-08 13:30N 30°04' W 090°54'1 2.7
2018-May-08 13:00N 30°04' W 090°52'  
Track history (hours):
 
Tides and Currents Weather Stations Pressure Air Temp Water Temp Dewpoint Dewpoint Depression Visibility Wind Speed Wind Dir Waves Ship Positions

Molly Patricia

Owner: MOLLY PATRICIA, Houston, TX. More information available from US FCC via Universal Licensing System and Coast Guard Vessel Documentation Center.

Last reported at 2018-May-18 11:40 UTC. Time now 2018-May-21 12:57 UTC.
Position N 30°03' W 090°39'.

Length 29 m; draft 3 m.

Type: Sailing vessel. MMSI: 367671160.

Date/timePositionNaut miles runAvg speedWind from/ knotsBaromVisibWave heightAir tempDewpointWater temp
2018-May-18 11:40N 30°03' W 090°39'0 0.0
2018-May-18 11:29N 30°03' W 090°39'0 0.0
2018-May-18 10:00N 30°03' W 090°39'0 0.0
2018-May-18 09:22N 30°03' W 090°39'0 0.0
2018-May-18 09:00N 30°03' W 090°39'15 0.7
2018-May-17 12:52N 29°57' W 090°23'0 0.0
2018-May-17 07:35N 29°57' W 090°23'0 0.0
2018-May-17 07:14N 29°57' W 090°23'0 0.0
2018-May-17 07:00N 29°57' W 090°23'0 0.0
2018-May-17 04:57N 29°57' W 090°23'0 0.0
2018-May-17 04:29N 29°57' W 090°23'0 0.0
2018-May-17 03:54N 29°57' W 090°23'  
2018-May-14 13:09N 29°57' W 090°23'0 0.0
2018-May-14 12:59N 29°57' W 090°23'0 0.0
2018-May-14 09:41N 29°57' W 090°23'0 0.0
2018-May-14 08:53N 29°57' W 090°23'0 0.0
2018-May-14 06:11N 29°57' W 090°23'0 0.0
2018-May-14 06:00N 29°57' W 090°23'  
2018-May-09 12:20N 30°26' W 091°12'0 0.0
2018-May-09 11:58N 30°26' W 091°12'0 0.0
2018-May-09 11:25N 30°26' W 091°12'0 0.0
2018-May-09 10:58N 30°26' W 091°12'0 0.0
2018-May-09 10:06N 30°26' W 091°12'0 0.0
2018-May-09 09:55N 30°26' W 091°12'26 1.3
2018-May-08 13:49N 30°05' W 090°54'1 2.5
2018-May-08 13:30N 30°04' W 090°54'1 2.7
2018-May-08 13:00N 30°04' W 090°52'  

Dump ship's entire track history